Time;durP1;ratioP1;P1;durP2;ratioP2;P2;SDS_P1;SDS_P2;PMS_P1;PMS_P2;Temp;Humidity;BMP_temperature;BMP_pressure;BME280_temperature;BME280_humidity;BME280_pressure;Samples;Min_cycle;Max_cycle;Signal;HPM_P1;HPM_P2
2023/07/30 00:01:47;;;;;;;2.77;2.57;;;17.90;99.90;;;;;;5010817;28;20179;-69
2023/07/30 00:04:13;;;;;;;3.83;2.47;;;17.90;99.90;;;;;;5011688;28;20194;-69
2023/07/30 00:06:38;;;;;;;2.30;2.10;;;17.80;99.90;;;;;;5009700;28;20768;-69
2023/07/30 00:09:03;;;;;;;2.93;2.73;;;17.70;99.90;;;;;;5010122;28;20278;-69
2023/07/30 00:11:29;;;;;;;3.00;2.57;;;17.70;99.90;;;;;;5010830;28;20221;-69
2023/07/30 00:13:55;;;;;;;2.83;2.63;;;17.70;99.90;;;;;;5012452;28;20249;-69
2023/07/30 00:16:20;;;;;;;2.50;2.30;;;17.70;99.90;;;;;;5012057;28;20701;-69
2023/07/30 00:18:46;;;;;;;3.20;2.87;;;17.70;99.90;;;;;;5009141;28;20210;-70
2023/07/30 00:21:11;;;;;;;3.10;2.50;;;17.70;99.90;;;;;;5010599;28;20198;-70
2023/07/30 00:23:37;;;;;;;4.50;3.30;;;17.70;99.90;;;;;;5011308;28;20193;-69
2023/07/30 00:26:02;;;;;;;4.30;3.93;;;17.80;99.90;;;;;;5006380;28;20586;-70
2023/07/30 00:28:28;;;;;;;3.27;3.07;;;17.80;99.90;;;;;;5016860;28;20213;-70
2023/07/30 00:30:53;;;;;;;3.40;3.10;;;17.80;99.90;;;;;;5011888;28;20183;-70
2023/07/30 00:33:19;;;;;;;3.60;3.40;;;17.70;99.90;;;;;;5011643;28;20252;-69
2023/07/30 00:35:44;;;;;;;3.80;3.50;;;17.70;99.90;;;;;;5011705;28;20203;-70
2023/07/30 00:38:10;;;;;;;4.20;3.20;;;17.70;99.90;;;;;;5010969;28;20237;-70
2023/07/30 00:40:41;;;;;;;4.03;3.70;;;17.60;99.90;;;;;;5011288;28;20187;-70
2023/07/30 00:43:07;;;;;;;3.80;3.50;;;17.60;99.90;;;;;;5012196;28;20183;-69
2023/07/30 00:45:33;;;;;;;3.00;2.80;;;17.60;99.90;;;;;;5012040;28;20875;-69
2023/07/30 00:47:59;;;;;;;3.70;3.50;;;17.50;99.90;;;;;;5005216;28;20444;-69
2023/07/30 00:50:25;;;;;;;4.47;3.60;;;17.50;99.90;;;;;;5010011;28;20438;-69
2023/07/30 00:52:50;;;;;;;4.20;3.70;;;17.50;99.90;;;;;;5010247;28;20175;-69
2023/07/30 00:55:17;;;;;;;4.23;3.90;;;17.50;99.90;;;;;;5010773;28;20730;-69
2023/07/30 00:57:43;;;;;;;4.07;3.77;;;17.60;99.90;;;;;;5009825;28;20668;-69
2023/07/30 01:00:09;;;;;;;5.43;4.40;;;17.60;99.90;;;;;;5007866;28;20472;-69
2023/07/30 01:02:36;;;;;;;5.53;4.40;;;17.70;99.90;;;;;;5009756;28;20274;-69
2023/07/30 01:05:03;;;;;;;5.30;4.80;;;17.70;99.90;;;;;;5009193;28;20846;-69
2023/07/30 01:07:29;;;;;;;4.47;4.10;;;17.80;99.90;;;;;;5011737;28;20433;-69
2023/07/30 01:09:55;;;;;;;5.60;5.10;;;17.80;99.90;;;;;;5007173;28;21041;-69
2023/07/30 01:12:21;;;;;;;7.80;6.10;;;17.80;99.90;;;;;;5009505;28;20547;-69
2023/07/30 01:14:48;;;;;;;5.80;5.30;;;17.90;99.90;;;;;;5010056;28;20185;-69
2023/07/30 01:17:14;;;;;;;6.00;5.50;;;17.90;99.90;;;;;;5009797;28;20836;-69
2023/07/30 01:19:39;;;;;;;5.20;4.80;;;17.90;99.90;;;;;;5008433;28;20445;-69
2023/07/30 01:22:05;;;;;;;6.30;5.80;;;18.00;99.90;;;;;;5009260;28;20219;-69
2023/07/30 01:24:30;;;;;;;5.83;5.33;;;17.90;99.90;;;;;;5009925;28;20179;-69
2023/07/30 01:27:01;;;;;;;6.10;5.70;;;17.90;99.90;;;;;;5011817;28;20570;-69
2023/07/30 01:29:33;;;;;;;5.70;5.30;;;17.90;99.90;;;;;;5010460;28;20675;-69
2023/07/30 01:32:04;;;;;;;6.80;6.30;;;17.90;99.90;;;;;;5011445;28;20434;-69
2023/07/30 01:34:33;;;;;;;5.73;5.23;;;17.90;99.90;;;;;;5010650;28;20434;-69
2023/07/30 01:37:00;;;;;;;5.57;5.17;;;17.90;99.90;;;;;;5011732;28;20451;-69
2023/07/30 01:39:27;;;;;;;5.70;5.30;;;17.90;99.90;;;;;;5009922;28;20434;-69
2023/07/30 01:41:55;;;;;;;6.37;5.83;;;17.80;99.90;;;;;;5003496;28;20513;-69
2023/07/30 01:44:21;;;;;;;5.87;5.40;;;17.80;99.90;;;;;;5010757;28;20445;-69
2023/07/30 01:46:46;;;;;;;6.67;6.10;;;17.80;99.90;;;;;;5014507;28;20527;-69
2023/07/30 01:49:12;;;;;;;7.73;5.77;;;17.80;99.90;;;;;;5013135;28;20194;-69
2023/07/30 01:51:37;;;;;;;6.57;4.70;;;17.80;99.90;;;;;;5012816;28;20182;-69
2023/07/30 01:54:03;;;;;;;6.17;4.83;;;17.70;99.90;;;;;;5014753;28;20178;-69
2023/07/30 01:56:29;;;;;;;4.83;4.43;;;17.70;99.90;;;;;;5015087;28;20202;-69
2023/07/30 01:58:54;;;;;;;4.80;4.40;;;17.70;99.90;;;;;;5015945;28;20607;-69
2023/07/30 02:01:20;;;;;;;5.00;4.60;;;17.60;99.90;;;;;;5007544;28;20187;-69
2023/07/30 02:03:45;;;;;;;5.70;5.20;;;17.70;99.90;;;;;;5007050;28;20270;-69
2023/07/30 02:06:11;;;;;;;5.10;4.70;;;17.70;99.90;;;;;;5009179;28;20202;-69
2023/07/30 02:08:37;;;;;;;5.57;5.07;;;17.70;99.90;;;;;;5010405;28;20707;-69
2023/07/30 02:11:03;;;;;;;6.73;4.63;;;17.70;99.90;;;;;;5011503;28;20429;-69
2023/07/30 02:13:28;;;;;;;4.50;4.10;;;17.70;99.90;;;;;;5011192;28;20262;-69
2023/07/30 02:15:54;;;;;;;5.80;5.30;;;17.70;99.90;;;;;;5014007;28;20234;-69
2023/07/30 02:18:19;;;;;;;5.53;5.13;;;17.60;99.90;;;;;;5013356;28;20519;-69
2023/07/30 02:20:45;;;;;;;5.50;5.00;;;17.60;99.90;;;;;;5014312;28;20238;-69
2023/07/30 02:23:11;;;;;;;7.83;5.33;;;17.60;99.90;;;;;;5012414;28;20183;-69
2023/07/30 02:25:37;;;;;;;6.33;5.73;;;17.60;99.90;;;;;;5012935;28;20203;-69
2023/07/30 02:28:03;;;;;;;6.10;5.47;;;17.50;99.90;;;;;;5016824;28;20258;-69
2023/07/30 02:30:29;;;;;;;6.10;5.60;;;17.50;99.90;;;;;;5014520;28;21084;-69
2023/07/30 02:32:54;;;;;;;8.20;5.47;;;17.50;99.90;;;;;;5014081;28;20225;-69
2023/07/30 02:35:20;;;;;;;6.13;5.17;;;17.50;99.90;;;;;;5015265;28;20264;-69
2023/07/30 02:37:45;;;;;;;7.90;5.80;;;17.50;99.90;;;;;;5014732;28;20182;-69
2023/07/30 02:40:11;;;;;;;6.80;5.53;;;17.40;99.90;;;;;;5014615;28;20211;-69
2023/07/30 02:42:37;;;;;;;5.70;5.20;;;17.50;99.90;;;;;;5014491;28;20182;-69
2023/07/30 02:45:03;;;;;;;5.63;5.20;;;17.50;99.90;;;;;;5013543;28;20210;-69
2023/07/30 02:47:29;;;;;;;6.60;6.00;;;17.50;99.90;;;;;;5013259;28;20174;-69
2023/07/30 02:49:54;;;;;;;7.93;7.27;;;17.60;99.90;;;;;;5012675;28;21055;-69
2023/07/30 02:52:20;;;;;;;7.03;5.43;;;17.60;99.90;;;;;;5012379;28;20185;-69
2023/07/30 02:54:45;;;;;;;9.00;5.10;;;17.60;99.90;;;;;;5011527;28;20201;-69
2023/07/30 02:57:12;;;;;;;6.07;5.63;;;17.60;99.90;;;;;;5010282;28;20261;-69
2023/07/30 02:59:38;;;;;;;6.40;5.17;;;17.60;99.90;;;;;;5009813;28;20191;-69
2023/07/30 03:02:07;;;;;;;5.60;4.63;;;17.60;99.90;;;;;;5011127;28;20878;-69
2023/07/30 03:04:33;;;;;;;5.20;3.93;;;17.50;99.90;;;;;;5011216;28;20183;-69
2023/07/30 03:06:58;;;;;;;5.20;4.70;;;17.50;99.90;;;;;;5008684;28;20468;-69
2023/07/30 03:09:24;;;;;;;5.47;4.30;;;17.40;99.90;;;;;;5010123;28;20461;-69
2023/07/30 03:11:50;;;;;;;8.43;6.90;;;17.40;99.90;;;;;;5011707;28;20182;-69
2023/07/30 03:14:15;;;;;;;7.70;5.97;;;17.40;99.90;;;;;;5009385;28;20307;-69
2023/07/30 03:16:41;;;;;;;8.10;5.30;;;17.40;99.90;;;;;;5011363;28;20250;-69
2023/07/30 03:19:07;;;;;;;5.33;4.80;;;17.30;99.90;;;;;;5011671;28;20241;-68
2023/07/30 03:21:32;;;;;;;8.43;4.57;;;17.30;99.90;;;;;;5009854;28;20658;-69
2023/07/30 03:23:58;;;;;;;4.93;4.40;;;17.30;99.90;;;;;;5006757;28;20672;-68
2023/07/30 03:26:23;;;;;;;10.13;4.80;;;17.30;99.90;;;;;;5005546;28;20203;-69
2023/07/30 03:28:49;;;;;;;4.30;4.00;;;17.30;99.90;;;;;;5004516;28;20222;-69
2023/07/30 03:31:15;;;;;;;4.10;3.80;;;17.40;99.90;;;;;;5003747;28;20179;-69
2023/07/30 03:33:43;;;;;;;4.40;4.00;;;17.40;99.90;;;;;;5003533;28;20793;-69
2023/07/30 03:36:10;;;;;;;4.10;3.80;;;17.40;99.90;;;;;;5006228;28;20221;-69
2023/07/30 03:38:35;;;;;;;4.80;4.50;;;17.40;99.90;;;;;;5004926;28;20445;-69
2023/07/30 03:41:01;;;;;;;4.50;4.20;;;17.40;99.90;;;;;;5003786;28;20504;-69
2023/07/30 03:43:26;;;;;;;4.87;4.27;;;17.50;99.90;;;;;;5004805;28;20278;-69
2023/07/30 03:45:52;;;;;;;5.30;4.80;;;17.50;99.90;;;;;;5009100;28;20198;-69
2023/07/30 03:48:17;;;;;;;5.30;4.80;;;17.50;99.90;;;;;;5004460;28;20432;-69
2023/07/30 03:50:43;;;;;;;4.97;3.83;;;17.50;99.90;;;;;;5005279;28;20241;-69
2023/07/30 03:53:08;;;;;;;5.53;5.03;;;17.50;99.90;;;;;;5005710;28;20187;-69
2023/07/30 03:55:34;;;;;;;6.07;4.43;;;17.50;99.90;;;;;;5003824;28;20554;-69
2023/07/30 03:57:59;;;;;;;6.10;4.20;;;17.50;99.90;;;;;;5005873;28;20190;-70
2023/07/30 04:00:25;;;;;;;4.70;4.30;;;17.50;99.90;;;;;;5003115;28;20328;-69
2023/07/30 04:02:50;;;;;;;5.80;3.90;;;17.50;99.90;;;;;;5004928;28;20225;-70
2023/07/30 04:05:16;;;;;;;6.97;4.37;;;17.60;99.90;;;;;;5006227;28;20655;-70
2023/07/30 04:07:41;;;;;;;5.63;3.90;;;17.50;99.90;;;;;;5003923;28;20281;-69
2023/07/30 04:10:08;;;;;;;4.70;4.30;;;17.50;99.90;;;;;;5002774;28;20270;-70
2023/07/30 04:12:33;;;;;;;5.93;3.73;;;17.60;99.90;;;;;;5005993;28;20698;-69
2023/07/30 04:14:59;;;;;;;6.50;3.80;;;17.50;99.90;;;;;;5002385;28;20469;-70
2023/07/30 04:17:24;;;;;;;4.87;4.23;;;17.50;99.90;;;;;;5005830;28;20233;-69
2023/07/30 04:19:50;;;;;;;5.33;4.10;;;17.50;99.90;;;;;;5003477;28;20187;-69
2023/07/30 04:22:15;;;;;;;4.33;4.03;;;17.50;99.90;;;;;;5005126;28;20237;-69
2023/07/30 04:24:41;;;;;;;5.13;3.60;;;17.50;99.90;;;;;;5004802;28;20189;-69
2023/07/30 04:27:07;;;;;;;4.40;4.07;;;17.50;99.90;;;;;;5004996;28;20183;-69
2023/07/30 04:29:32;;;;;;;5.40;4.60;;;17.50;99.90;;;;;;5005717;28;20658;-69
2023/07/30 04:31:58;;;;;;;10.00;4.43;;;17.50;99.90;;;;;;5007864;28;20175;-69
2023/07/30 04:34:23;;;;;;;4.00;3.43;;;17.50;99.90;;;;;;5012304;28;20229;-69
2023/07/30 04:36:49;;;;;;;4.60;4.23;;;17.40;99.90;;;;;;5009031;28;20652;-69
2023/07/30 04:39:14;;;;;;;7.63;4.10;;;17.50;99.90;;;;;;5008428;28;20186;-69
2023/07/30 04:41:40;;;;;;;11.40;4.13;;;17.50;99.90;;;;;;5011605;28;20175;-69
2023/07/30 04:44:05;;;;;;;4.53;4.10;;;17.50;99.90;;;;;;5010476;28;20703;-69
2023/07/30 04:46:33;;;;;;;5.10;4.40;;;17.60;99.90;;;;;;5011345;28;20198;-69
2023/07/30 04:48:58;;;;;;;4.83;4.43;;;17.60;99.90;;;;;;5014386;28;20191;-69
2023/07/30 04:51:24;;;;;;;4.60;4.30;;;17.50;99.90;;;;;;5012038;28;20441;-69
2023/07/30 04:53:49;;;;;;;5.67;4.23;;;17.60;99.90;;;;;;5008963;28;20175;-69
2023/07/30 04:56:15;;;;;;;4.53;4.13;;;17.60;99.90;;;;;;5009569;28;20211;-69
2023/07/30 04:58:40;;;;;;;4.10;3.80;;;17.60;99.90;;;;;;5011179;28;20194;-69
2023/07/30 05:01:06;;;;;;;5.30;4.30;;;17.60;99.90;;;;;;5013696;28;20179;-69
2023/07/30 05:03:31;;;;;;;4.73;3.97;;;17.60;99.90;;;;;;5010651;28;20617;-69
2023/07/30 05:05:57;;;;;;;5.43;4.40;;;17.60;99.90;;;;;;5011604;28;20660;-69
2023/07/30 05:08:22;;;;;;;4.70;4.30;;;17.60;99.90;;;;;;5010232;28;20206;-69
2023/07/30 05:10:48;;;;;;;4.30;3.90;;;17.60;99.90;;;;;;5009883;28;20171;-69
2023/07/30 05:13:13;;;;;;;5.63;4.83;;;17.60;99.90;;;;;;5010274;28;20245;-69
2023/07/30 05:15:39;;;;;;;6.33;4.93;;;17.60;99.90;;;;;;5011691;28;20273;-68
2023/07/30 05:18:04;;;;;;;5.30;4.70;;;17.70;99.90;;;;;;5009613;28;20637;-68
2023/07/30 05:20:30;;;;;;;8.30;4.00;;;17.70;99.90;;;;;;5010371;28;20175;-68
2023/07/30 05:22:55;;;;;;;12.57;4.57;;;17.70;99.90;;;;;;5010437;28;20178;-69
2023/07/30 05:25:21;;;;;;;5.23;4.73;;;17.70;99.90;;;;;;5010866;28;20240;-69
2023/07/30 05:27:46;;;;;;;5.70;4.50;;;17.70;99.90;;;;;;5010933;28;20206;-69
2023/07/30 05:30:12;;;;;;;11.90;4.10;;;17.80;99.90;;;;;;5006448;28;20202;-68
2023/07/30 05:32:37;;;;;;;5.93;4.80;;;17.80;99.90;;;;;;5010395;28;20191;-69
2023/07/30 05:35:03;;;;;;;5.80;4.67;;;17.90;99.90;;;;;;5011332;28;20194;-68
2023/07/30 05:37:29;;;;;;;5.10;4.70;;;18.00;99.90;;;;;;5008750;28;20189;-69
2023/07/30 05:39:54;;;;;;;4.93;4.53;;;18.10;99.90;;;;;;5010629;28;20270;-68
2023/07/30 05:42:20;;;;;;;4.77;4.37;;;18.20;99.90;;;;;;5010849;28;20214;-68
2023/07/30 05:44:45;;;;;;;5.40;3.90;;;18.20;99.90;;;;;;5011143;28;20667;-68
2023/07/30 05:47:11;;;;;;;4.30;3.87;;;18.20;99.90;;;;;;5008477;28;20258;-68
2023/07/30 05:49:36;;;;;;;5.23;4.80;;;18.20;99.90;;;;;;5006502;28;20211;-68
2023/07/30 05:52:02;;;;;;;4.03;3.30;;;18.20;99.90;;;;;;5010686;28;20177;-68
2023/07/30 05:54:27;;;;;;;3.93;3.60;;;18.20;99.90;;;;;;5010550;28;20171;-68
2023/07/30 05:56:53;;;;;;;4.37;3.97;;;18.20;99.90;;;;;;5009828;28;20198;-68
2023/07/30 05:59:19;;;;;;;3.97;3.67;;;18.30;99.90;;;;;;5007502;28;20186;-68
2023/07/30 06:01:45;;;;;;;5.90;4.10;;;18.30;99.90;;;;;;5010889;28;20641;-68
2023/07/30 06:04:10;;;;;;;8.20;3.93;;;18.30;99.90;;;;;;5008948;28;20453;-68
2023/07/30 06:06:36;;;;;;;4.63;3.90;;;18.40;99.90;;;;;;5010682;28;20210;-68
2023/07/30 06:09:01;;;;;;;5.00;4.00;;;18.40;99.90;;;;;;5009228;28;20277;-68
2023/07/30 06:11:27;;;;;;;3.77;3.47;;;18.40;99.90;;;;;;5009627;28;20262;-68
2023/07/30 06:13:53;;;;;;;5.20;3.87;;;18.50;99.90;;;;;;5010687;28;20258;-68
2023/07/30 06:16:20;;;;;;;8.03;4.80;;;18.50;99.90;;;;;;5010828;28;20552;-68
2023/07/30 06:18:45;;;;;;;4.53;3.73;;;18.60;99.90;;;;;;5008087;28;20187;-68
2023/07/30 06:21:11;;;;;;;5.93;4.10;;;18.60;99.90;;;;;;5009977;28;20446;-68
2023/07/30 06:23:36;;;;;;;4.37;3.97;;;18.60;99.90;;;;;;5010175;28;20694;-68
2023/07/30 06:26:02;;;;;;;5.83;5.10;;;18.70;99.90;;;;;;5010649;28;20203;-68
2023/07/30 06:28:27;;;;;;;5.03;4.00;;;18.70;99.90;;;;;;5008471;28;20218;-68
2023/07/30 06:30:53;;;;;;;4.37;3.10;;;18.70;99.90;;;;;;5011583;28;20179;-68
2023/07/30 06:33:18;;;;;;;5.17;3.40;;;18.80;99.90;;;;;;5014389;28;20183;-68
2023/07/30 06:35:44;;;;;;;7.13;4.40;;;18.80;99.90;;;;;;5014415;28;20199;-68
2023/07/30 06:38:09;;;;;;;5.43;3.67;;;19.00;99.90;;;;;;5011194;28;20183;-68
2023/07/30 06:40:35;;;;;;;2.73;2.40;;;19.20;99.90;;;;;;5012641;28;20270;-68
2023/07/30 06:43:00;;;;;;;4.90;3.13;;;19.30;99.90;;;;;;5013919;28;20186;-68
2023/07/30 06:45:26;;;;;;;3.20;2.90;;;19.40;99.90;;;;;;5014461;28;20560;-68
2023/07/30 06:47:52;;;;;;;2.17;2.07;;;19.70;99.90;;;;;;5008109;28;20282;-68
2023/07/30 06:50:17;;;;;;;3.70;2.30;;;20.20;99.90;;;;;;5012756;28;20682;-69
2023/07/30 06:52:43;;;;;;;2.30;2.10;;;20.80;99.90;;;;;;5012720;28;20190;-68
2023/07/30 06:55:08;;;;;;;1.90;1.80;;;21.20;99.90;;;;;;5012189;28;20202;-68
2023/07/30 06:57:34;;;;;;;2.20;2.10;;;21.30;99.90;;;;;;5014147;28;20198;-68
2023/07/30 07:00:01;;;;;;;3.07;2.77;;;21.20;99.90;;;;;;5011642;28;20570;-68
2023/07/30 07:02:26;;;;;;;2.50;2.30;;;21.20;99.90;;;;;;5011713;28;20261;-68
2023/07/30 07:04:54;;;;;;;2.90;2.70;;;20.90;99.90;;;;;;5010329;28;20457;-68
2023/07/30 07:07:20;;;;;;;2.90;2.37;;;20.70;99.90;;;;;;5013847;28;20175;-68
2023/07/30 07:09:45;;;;;;;2.63;2.43;;;20.50;99.90;;;;;;5011418;28;20469;-65
2023/07/30 07:12:11;;;;;;;2.33;2.13;;;20.40;99.90;;;;;;5014077;28;20437;-66
2023/07/30 07:14:36;;;;;;;2.40;2.20;;;20.40;99.90;;;;;;5012971;28;20179;-66
2023/07/30 07:17:02;;;;;;;2.40;2.00;;;20.40;99.90;;;;;;5012849;28;20545;-66
2023/07/30 07:19:28;;;;;;;3.97;2.03;;;20.20;99.90;;;;;;5010751;28;20183;-66
2023/07/30 07:21:53;;;;;;;3.90;2.43;;;20.10;99.90;;;;;;5011997;28;20206;-66
2023/07/30 07:24:19;;;;;;;2.80;2.03;;;20.00;99.90;;;;;;5011104;28;20217;-66
2023/07/30 07:26:44;;;;;;;7.03;4.80;;;19.80;99.90;;;;;;5013324;28;20202;-66
2023/07/30 07:29:10;;;;;;;2.20;2.10;;;19.80;99.90;;;;;;5010994;28;20595;-66
2023/07/30 07:31:36;;;;;;;3.03;2.50;;;19.60;99.90;;;;;;5011303;28;20178;-65
2023/07/30 07:34:01;;;;;;;2.17;2.07;;;19.50;99.90;;;;;;5010595;28;20952;-66
2023/07/30 07:36:27;;;;;;;2.63;2.43;;;19.40;99.90;;;;;;5011876;28;20202;-67
2023/07/30 07:38:52;;;;;;;2.37;2.10;;;19.20;99.90;;;;;;5009753;28;20186;-67
2023/07/30 07:41:18;;;;;;;2.53;2.30;;;19.00;99.90;;;;;;5010942;28;20656;-68
2023/07/30 07:43:46;;;;;;;3.30;2.30;;;18.90;99.90;;;;;;5012145;28;20187;-69
2023/07/30 07:46:14;;;;;;;3.30;3.10;;;18.90;99.90;;;;;;5011140;28;20624;-69
2023/07/30 07:48:43;;;;;;;3.60;2.57;;;18.90;99.90;;;;;;5011781;28;20457;-69
2023/07/30 07:51:10;;;;;;;3.20;2.90;;;19.10;99.90;;;;;;5010701;28;20814;-69
2023/07/30 07:53:36;;;;;;;2.60;2.50;;;19.20;99.90;;;;;;5010920;28;20517;-70
2023/07/30 07:56:02;;;;;;;2.87;2.30;;;19.10;99.90;;;;;;5010439;28;20445;-69
2023/07/30 07:58:28;;;;;;;18.67;5.90;;;19.10;99.90;;;;;;5010771;28;20437;-68
2023/07/30 08:00:57;;;;;;;2.00;1.90;;;19.20;99.90;;;;;;5010377;28;20202;-68
2023/07/30 08:03:24;;;;;;;3.43;3.13;;;19.40;99.90;;;;;;5011959;28;20440;-68
2023/07/30 08:05:50;;;;;;;3.80;2.90;;;19.50;99.90;;;;;;5012587;28;20476;-67
2023/07/30 08:08:16;;;;;;;1.97;1.87;;;19.60;99.90;;;;;;5011163;28;20438;-68
2023/07/30 08:10:43;;;;;;;2.13;1.80;;;19.70;99.90;;;;;;5011734;28;20269;-67
2023/07/30 08:13:10;;;;;;;1.80;1.70;;;19.90;99.90;;;;;;5010275;28;20440;-68
2023/07/30 08:15:36;;;;;;;2.00;1.90;;;20.00;99.90;;;;;;5011873;28;20473;-68
2023/07/30 08:18:01;;;;;;;2.00;1.80;;;20.20;99.90;;;;;;5011683;28;20499;-68
2023/07/30 08:20:27;;;;;;;1.80;1.70;;;20.40;99.90;;;;;;5010891;28;20218;-68
2023/07/30 08:22:52;;;;;;;1.80;1.70;;;20.70;99.90;;;;;;5011545;28;20194;-68
2023/07/30 08:25:18;;;;;;;2.23;2.00;;;21.00;99.90;;;;;;5011556;28;20206;-68
2023/07/30 08:27:43;;;;;;;2.10;1.87;;;21.30;99.90;;;;;;5012580;28;20197;-68
2023/07/30 08:30:09;;;;;;;2.10;1.90;;;21.80;99.90;;;;;;5010935;28;20656;-67
2023/07/30 08:32:35;;;;;;;2.13;1.87;;;22.10;99.90;;;;;;5012444;28;20207;-68
2023/07/30 08:35:00;;;;;;;1.50;1.40;;;22.70;99.90;;;;;;5011620;28;20489;-67
2023/07/30 08:37:26;;;;;;;2.33;2.23;;;22.90;99.90;;;;;;5012622;28;20620;-68
2023/07/30 08:39:52;;;;;;;2.00;1.80;;;23.10;99.90;;;;;;5011114;28;20588;-68
2023/07/30 08:42:17;;;;;;;1.70;1.60;;;23.20;99.90;;;;;;5011751;28;20710;-68
2023/07/30 08:44:43;;;;;;;2.60;2.40;;;23.10;99.90;;;;;;5009885;28;20445;-68
2023/07/30 08:47:09;;;;;;;2.53;2.33;;;22.70;99.90;;;;;;5006062;28;20175;-68
2023/07/30 08:49:35;;;;;;;3.43;2.00;;;22.60;99.90;;;;;;5010666;28;20222;-68
2023/07/30 08:52:02;;;;;;;2.23;2.03;;;22.50;99.90;;;;;;5011520;28;20449;-68
2023/07/30 08:54:30;;;;;;;1.63;1.53;;;22.70;99.90;;;;;;5009835;28;20177;-68
2023/07/30 08:56:59;;;;;;;1.80;1.70;;;23.20;99.90;;;;;;5008639;28;20553;-69
2023/07/30 08:59:26;;;;;;;2.27;1.83;;;23.60;99.90;;;;;;5009247;28;20503;-68
2023/07/30 09:01:53;;;;;;;1.70;1.60;;;23.80;99.90;;;;;;5010924;28;20954;-68
2023/07/30 09:04:19;;;;;;;2.40;2.20;;;24.10;99.90;;;;;;5009649;28;20433;-69
2023/07/30 09:06:48;;;;;;;1.90;1.80;;;24.50;99.90;;;;;;5009787;28;20539;-68
2023/07/30 09:09:14;;;;;;;4.57;4.27;;;24.90;99.90;;;;;;5010999;28;20203;-69
2023/07/30 09:11:39;;;;;;;2.20;2.00;;;25.30;99.90;;;;;;5012490;28;20518;-68
2023/07/30 09:14:06;;;;;;;2.33;2.13;;;25.50;99.90;;;;;;5012505;28;20254;-68
2023/07/30 09:16:31;;;;;;;2.10;2.00;;;25.40;99.90;;;;;;5009026;28;20217;-69
2023/07/30 09:18:57;;;;;;;4.03;3.60;;;24.60;99.90;;;;;;5009749;28;20441;-68
2023/07/30 09:21:30;;;;;;;2.70;2.50;;;23.80;99.90;;;;;;5011610;28;20179;-68
2023/07/30 09:23:57;;;;;;;2.30;2.10;;;23.60;99.90;;;;;;5003861;28;20440;-68
2023/07/30 09:26:22;;;;;;;3.10;2.30;;;23.60;99.90;;;;;;5009491;28;20545;-68
2023/07/30 09:28:48;;;;;;;2.27;1.90;;;23.30;99.90;;;;;;5010308;28;20921;-68
2023/07/30 09:31:13;;;;;;;2.30;2.10;;;23.00;99.90;;;;;;5011653;28;20176;-68
2023/07/30 09:33:42;;;;;;;2.30;2.20;;;22.50;99.90;;;;;;5011609;28;20179;-68
2023/07/30 09:36:09;;;;;;;3.07;2.87;;;22.20;99.90;;;;;;5009234;28;20205;-68
2023/07/30 09:38:42;;;;;;;2.57;2.47;;;22.00;99.90;;;;;;5010684;28;20461;-68
2023/07/30 09:41:09;;;;;;;3.03;2.83;;;21.90;99.90;;;;;;5010140;28;20445;-68
2023/07/30 09:43:35;;;;;;;2.70;2.50;;;21.90;99.90;;;;;;5011316;28;20973;-68
2023/07/30 09:46:03;;;;;;;2.30;2.13;;;21.80;99.90;;;;;;5007173;28;20990;-68
2023/07/30 09:48:31;;;;;;;2.40;2.20;;;21.90;99.90;;;;;;5007205;28;20469;-68
2023/07/30 09:50:58;;;;;;;2.70;2.50;;;21.80;99.90;;;;;;5008475;28;20437;-68
2023/07/30 09:53:25;;;;;;;2.20;2.00;;;22.20;99.90;;;;;;5011311;28;20795;-68
2023/07/30 09:55:50;;;;;;;2.57;2.07;;;22.70;99.90;;;;;;5010473;28;20458;-68
2023/07/30 09:58:16;;;;;;;2.47;2.27;;;23.20;99.90;;;;;;5009796;28;20491;-69
2023/07/30 10:00:43;;;;;;;2.60;1.90;;;23.50;99.90;;;;;;5010660;28;20187;-69
2023/07/30 10:03:11;;;;;;;2.67;2.47;;;23.80;99.90;;;;;;5010879;28;20448;-69
2023/07/30 10:05:39;;;;;;;2.07;1.97;;;24.20;99.90;;;;;;5010104;28;20825;-69
2023/07/30 10:08:13;;;;;;;2.90;2.40;;;24.50;99.90;;;;;;5013228;28;20457;-68
2023/07/30 10:10:39;;;;;;;3.90;2.40;;;25.40;99.90;;;;;;5015008;28;20441;-69
2023/07/30 10:13:09;;;;;;;1.80;1.70;;;25.70;99.90;;;;;;5014395;28;20449;-69
2023/07/30 10:15:37;;;;;;;2.80;2.33;;;26.00;99.90;;;;;;5012830;28;20217;-69
2023/07/30 10:18:04;;;;;;;2.20;2.10;;;26.10;99.90;;;;;;5015043;28;20440;-69
2023/07/30 10:20:31;;;;;;;1.90;1.80;;;26.60;99.90;;;;;;5014195;28;20452;-69
2023/07/30 10:22:58;;;;;;;2.90;1.83;;;26.40;99.90;;;;;;5014650;28;20983;-69
2023/07/30 10:25:47;;;;;;;2.70;2.50;;;26.50;99.90;;;;;;5013430;28;20469;-69
2023/07/30 10:28:36;;;;;;;2.30;2.20;;;27.10;99.90;;;;;;5011859;28;20968;-70
2023/07/30 10:31:04;;;;;;;2.80;2.47;;;26.80;99.90;;;;;;5008297;28;20600;-70
2023/07/30 10:33:45;;;;;;;2.83;2.10;;;27.70;99.90;;;;;;5014589;28;20430;-69
2023/07/30 10:36:11;;;;;;;2.53;2.33;;;28.60;99.90;;;;;;5012760;28;20574;-69
2023/07/30 10:38:36;;;;;;;2.80;2.47;;;29.70;99.90;;;;;;5013441;28;20540;-69
2023/07/30 10:41:18;;;;;;;2.80;2.43;;;30.30;98.60;;;;;;5014835;28;20183;-69
2023/07/30 10:43:47;;;;;;;3.03;2.83;;;31.00;95.30;;;;;;5014062;28;20256;-69
2023/07/30 10:46:14;;;;;;;2.63;2.50;;;31.30;94.20;;;;;;5012221;28;20480;-68
2023/07/30 10:48:42;;;;;;;2.37;2.17;;;32.00;91.80;;;;;;5012431;28;20469;-67
2023/07/30 10:51:13;;;;;;;3.03;2.73;;;31.20;90.60;;;;;;5014297;28;20508;-67
2023/07/30 10:53:42;;;;;;;2.53;2.37;;;30.50;92.10;;;;;;5011147;28;20436;-68
2023/07/30 10:56:08;;;;;;;2.90;2.60;;;29.30;96.10;;;;;;5013723;28;20551;-67
2023/07/30 10:58:36;;;;;;;2.40;2.30;;;28.90;94.90;;;;;;5013420;28;20473;-67
2023/07/30 11:01:06;;;;;;;4.90;4.50;;;28.70;94.90;;;;;;5013540;28;20450;-67
2023/07/30 11:03:32;;;;;;;2.73;2.33;;;28.40;97.00;;;;;;5013521;28;20908;-67
2023/07/30 11:05:59;;;;;;;4.47;4.07;;;27.80;97.40;;;;;;5012693;28;20882;-67
2023/07/30 11:08:39;;;;;;;2.93;2.73;;;27.90;96.10;;;;;;5012698;28;20448;-67
2023/07/30 11:11:06;;;;;;;2.53;2.33;;;27.50;95.80;;;;;;5010758;28;20501;-66
2023/07/30 11:13:42;;;;;;;2.50;2.30;;;26.50;99.10;;;;;;5013907;28;20436;-67
2023/07/30 11:16:09;;;;;;;2.27;2.10;;;26.20;99.90;;;;;;5013917;28;20476;-66
2023/07/30 11:18:37;;;;;;;2.93;2.73;;;25.80;99.90;;;;;;5012166;28;20488;-66
2023/07/30 11:21:07;;;;;;;3.03;2.50;;;25.80;99.90;;;;;;5011855;28;21164;-68
2023/07/30 11:23:33;;;;;;;3.23;3.03;;;26.00;99.90;;;;;;5010110;28;20448;-68
2023/07/30 11:26:01;;;;;;;2.87;2.67;;;26.20;99.90;;;;;;5012286;28;20472;-68
2023/07/30 11:28:37;;;;;;;2.97;2.77;;;27.10;99.90;;;;;;5011728;28;20531;-69
2023/07/30 11:31:12;;;;;;;3.43;3.13;;;28.60;95.50;;;;;;5008628;28;20540;-67
2023/07/30 11:33:43;;;;;;;2.30;2.20;;;29.70;92.00;;;;;;5011185;28;20432;-67
2023/07/30 11:36:14;;;;;;;3.20;2.90;;;30.20;90.20;;;;;;5012608;28;20545;-67
2023/07/30 11:38:40;;;;;;;2.57;2.37;;;30.80;88.10;;;;;;5012585;28;20446;-67
2023/07/30 11:41:09;;;;;;;2.63;2.43;;;31.80;80.90;;;;;;5013195;28;21028;-67
2023/07/30 11:43:40;;;;;;;2.40;2.30;;;33.00;76.40;;;;;;5012149;28;20446;-66
2023/07/30 11:46:11;;;;;;;2.67;2.57;;;32.60;72.50;;;;;;5011021;28;20835;-66
2023/07/30 11:48:37;;;;;;;3.50;2.93;;;30.90;76.80;;;;;;5011092;28;21037;-66
2023/07/30 11:51:03;;;;;;;4.20;3.00;;;29.80;83.70;;;;;;5010420;28;20460;-66
2023/07/30 11:53:53;;;;;;;4.80;2.93;;;28.10;89.70;;;;;;5012568;28;20776;-66
2023/07/30 11:56:31;;;;;;;2.90;2.70;;;26.60;95.80;;;;;;5013996;28;20198;-68
2023/07/30 11:59:01;;;;;;;3.30;3.00;;;25.90;98.60;;;;;;5005119;28;20453;-68
2023/07/30 12:01:29;;;;;;;3.10;2.80;;;25.40;99.90;;;;;;5014966;28;20441;-68
2023/07/30 12:03:56;;;;;;;2.73;2.50;;;25.40;99.90;;;;;;5011269;28;20434;-68
2023/07/30 12:06:21;;;;;;;3.00;2.80;;;25.40;99.90;;;;;;5012377;28;20489;-68
2023/07/30 12:08:49;;;;;;;3.90;3.10;;;25.70;99.90;;;;;;5011568;28;21009;-67
2023/07/30 12:11:17;;;;;;;8.13;5.73;;;25.20;99.90;;;;;;5011762;28;20182;-68
2023/07/30 12:13:47;;;;;;;3.33;3.10;;;25.50;99.90;;;;;;5012017;28;20429;-68
2023/07/30 12:16:14;;;;;;;2.30;2.10;;;28.00;95.80;;;;;;5010327;28;20468;-68
2023/07/30 12:18:40;;;;;;;2.50;2.30;;;30.40;89.70;;;;;;5011759;28;20441;-68
2023/07/30 12:21:07;;;;;;;3.63;2.93;;;32.10;77.60;;;;;;5011839;28;20431;-68
2023/07/30 12:23:36;;;;;;;3.10;2.33;;;32.00;75.10;;;;;;5009530;28;20782;-68
2023/07/30 12:26:04;;;;;;;2.70;2.50;;;32.30;73.10;;;;;;5008463;28;20461;-68
2023/07/30 12:28:36;;;;;;;2.57;2.33;;;33.20;70.70;;;;;;5010925;28;20472;-68
2023/07/30 12:31:01;;;;;;;2.97;2.67;;;33.00;65.90;;;;;;5012008;28;20839;-68
2023/07/30 12:33:27;;;;;;;3.33;2.97;;;31.00;67.00;;;;;;5010187;28;20438;-68
2023/07/30 12:35:53;;;;;;;3.43;2.70;;;29.60;71.80;;;;;;5010237;28;20202;-68
2023/07/30 12:38:18;;;;;;;6.37;3.37;;;28.20;78.60;;;;;;5011321;28;20175;-68
2023/07/30 12:40:44;;;;;;;2.87;2.67;;;27.20;85.50;;;;;;5011676;28;20189;-68
2023/07/30 12:43:09;;;;;;;2.60;2.40;;;27.60;88.60;;;;;;5012421;28;20258;-68